Etusivu
METAR-TAF:

METAR-TAF

Lentoasemat :

Platteville, Wisconsin, Yhdysvallat

Leveyspiiri: 42-41-22N, Pituuspiiri: 090-26-40W, korkeus merenpinnasta: 312 m

Tämänhetkinen sää

Tämä raportti tehtiin 25 minuuttia sitten, kello 02.55 UTC
Tuuli 4 kn kaakosta
Lämpötila 0°C
Kosteus 100%
Ilmanpaine 1006 hPa
Näkyvyys: 16.1 km
Pilvistä 1000 ft:n korkeudessa

METAR: KPVB 190255Z AUTO 14004KT 10SM OVC010 00/00 A2972 RMK AO1 T00030003

Aika: 21:20 (03:20 UTC)


TAF: puuttuu

Säähavainnot ja -ennusteet yli 4000 lentoasemalta (METAR- ja TAF-raportit).

Käytössä olevat sääasemat on merkitty karttaan keltaisilla ja punaisilla pisteillä.

Aseta hiiri pisteen päälle nähdäksesi sääaseman nimen.

Klikkaa sitten nähdäksesi säähavainnot ja -ennusteet.

Kartan vaihtaminen: klikkaa mustalla rastilla varustettuja vihreitä pisteitä, niin voit zoomata sisään; viivalla varustettua vihreää pistettä, niin voit zoomata ulos tai vihreitä nuolia, niin pääset viereisille kartoille.


METAR-TAF: